createdAt,value
2019-01-26T00:00:17.819Z,4.00
2019-01-26T00:01:07.614Z,4.00
2019-01-26T00:01:56.699Z,4.10
2019-01-26T00:02:42.752Z,4.10
2019-01-26T00:03:29.763Z,4.10
2019-01-26T00:04:17.227Z,4.10
2019-01-26T00:05:05.598Z,4.10
2019-01-26T00:05:51.994Z,4.00
2019-01-26T00:06:43.090Z,4.10
2019-01-26T00:07:29.687Z,4.10
2019-01-26T00:08:15.777Z,4.10
2019-01-26T00:09:04.719Z,4.10
2019-01-26T00:09:51.187Z,4.10
2019-01-26T00:10:37.482Z,4.10
2019-01-26T00:11:25.624Z,4.10
2019-01-26T00:12:11.899Z,4.10
2019-01-26T00:12:58.154Z,4.10
2019-01-26T00:13:45.861Z,4.10
2019-01-26T00:14:32.284Z,4.10
2019-01-26T00:15:18.768Z,4.10
2019-01-26T00:16:05.166Z,4.20
2019-01-26T00:16:51.207Z,4.20
2019-01-26T00:17:37.374Z,4.20
2019-01-26T00:18:23.959Z,4.20
2019-01-26T00:19:09.955Z,4.20
2019-01-26T00:19:57.204Z,4.20
2019-01-26T00:20:44.643Z,4.20
2019-01-26T00:21:33.294Z,4.20
2019-01-26T00:22:19.700Z,4.20
2019-01-26T00:23:06.131Z,4.20
2019-01-26T00:23:52.776Z,4.20
2019-01-26T00:24:39.209Z,4.20
2019-01-26T00:25:25.774Z,4.20
2019-01-26T00:26:12.286Z,4.20
2019-01-26T00:26:58.361Z,4.20
2019-01-26T00:27:44.604Z,4.20
2019-01-26T00:28:30.775Z,4.20
2019-01-26T00:29:17.012Z,4.20
2019-01-26T00:30:04.932Z,4.30
2019-01-26T00:30:53.939Z,4.30
2019-01-26T00:31:40.232Z,4.20
2019-01-26T00:32:29.412Z,4.30
2019-01-26T00:33:17.171Z,4.30
2019-01-26T00:34:03.690Z,4.30
2019-01-26T00:34:49.696Z,4.30
2019-01-26T00:35:38.282Z,4.30
2019-01-26T00:36:24.333Z,4.30
2019-01-26T00:37:10.464Z,4.30
2019-01-26T00:37:56.820Z,4.30
2019-01-26T00:38:43.029Z,4.30
2019-01-26T00:39:29.391Z,4.30
2019-01-26T00:40:15.820Z,4.30
2019-01-26T00:41:02.615Z,4.40
2019-01-26T00:41:49.219Z,4.40
2019-01-26T00:42:35.843Z,4.30
2019-01-26T00:43:23.442Z,4.30
2019-01-26T00:44:10.108Z,4.40
2019-01-26T00:44:56.306Z,4.40
2019-01-26T00:45:42.977Z,4.40
2019-01-26T00:46:29.416Z,4.40
2019-01-26T00:47:15.826Z,4.40
2019-01-26T00:48:02.325Z,4.40
2019-01-26T00:48:48.268Z,4.40
2019-01-26T00:49:34.651Z,4.40
2019-01-26T00:50:20.607Z,4.40
2019-01-26T00:51:06.942Z,4.40
2019-01-26T00:51:54.630Z,4.40
2019-01-26T00:52:40.974Z,4.40
2019-01-26T00:53:27.003Z,4.40
2019-01-26T00:54:13.312Z,4.40
2019-01-26T00:54:59.707Z,4.40
2019-01-26T00:55:45.991Z,4.40
2019-01-26T00:56:32.139Z,4.40
2019-01-26T00:57:18.483Z,4.50
2019-01-26T00:58:04.416Z,4.50
2019-01-26T00:58:50.311Z,4.50
2019-01-26T00:59:39.166Z,4.50
2019-01-26T01:00:25.422Z,4.50
2019-01-26T01:01:11.995Z,4.50
2019-01-26T01:02:00.505Z,4.50
2019-01-26T01:02:46.927Z,4.50
2019-01-26T01:03:33.293Z,4.50
2019-01-26T01:04:19.614Z,4.50
2019-01-26T01:05:06.445Z,4.50
2019-01-26T01:05:52.509Z,4.50
2019-01-26T01:06:39.018Z,4.50
2019-01-26T01:07:26.395Z,4.60
2019-01-26T01:08:12.852Z,4.50
2019-01-26T01:09:01.684Z,4.50
2019-01-26T01:09:47.929Z,4.60
2019-01-26T01:10:34.410Z,4.60
2019-01-26T01:11:20.932Z,4.50
2019-01-26T01:12:07.497Z,4.60
2019-01-26T01:12:56.461Z,4.60
2019-01-26T01:13:42.960Z,4.60
2019-01-26T01:14:29.803Z,4.60
2019-01-26T01:15:16.178Z,4.60
2019-01-26T01:16:02.280Z,4.60
2019-01-26T01:16:48.549Z,4.60
2019-01-26T01:17:35.201Z,4.60
2019-01-26T01:18:21.171Z,4.60
2019-01-26T01:19:07.686Z,4.60
2019-01-26T01:19:53.852Z,4.60
2019-01-26T01:20:39.951Z,4.60
2019-01-26T01:21:26.659Z,4.60
2019-01-26T01:22:13.009Z,4.60
2019-01-26T01:22:59.455Z,4.60
2019-01-26T01:23:46.289Z,4.60
2019-01-26T01:24:32.668Z,4.60
2019-01-26T01:25:19.245Z,4.60
2019-01-26T01:26:05.343Z,4.60
2019-01-26T01:26:51.311Z,4.70
2019-01-26T01:27:37.796Z,4.70
2019-01-26T01:28:24.555Z,4.70
2019-01-26T01:29:10.295Z,4.70
2019-01-26T01:29:56.268Z,4.70
2019-01-26T01:30:42.526Z,4.70
2019-01-26T01:31:28.690Z,4.70
2019-01-26T01:32:14.827Z,4.70
2019-01-26T01:33:01.198Z,4.70
2019-01-26T01:33:47.171Z,4.70
2019-01-26T01:34:34.543Z,4.70
2019-01-26T01:35:20.660Z,4.70
2019-01-26T01:36:06.803Z,4.80
2019-01-26T01:36:52.727Z,4.70
2019-01-26T01:37:39.051Z,4.70
2019-01-26T01:38:24.951Z,4.70
2019-01-26T01:39:10.888Z,4.80
2019-01-26T01:39:56.839Z,4.70
2019-01-26T01:40:43.026Z,4.80
2019-01-26T01:41:29.362Z,4.80
2019-01-26T01:42:15.410Z,4.80
2019-01-26T01:43:02.959Z,4.80
2019-01-26T01:43:49.589Z,4.80
2019-01-26T01:44:35.751Z,4.80
2019-01-26T01:45:22.107Z,4.80
2019-01-26T01:46:08.600Z,4.80
2019-01-26T01:46:56.102Z,4.80
2019-01-26T01:47:42.580Z,4.80
2019-01-26T01:48:28.961Z,4.80
2019-01-26T01:49:16.095Z,4.80
2019-01-26T01:50:03.770Z,4.80
2019-01-26T01:50:50.056Z,4.80
2019-01-26T01:51:36.187Z,4.80
2019-01-26T01:52:22.134Z,4.80
2019-01-26T01:53:10.161Z,4.80
2019-01-26T01:53:57.414Z,4.80
2019-01-26T01:54:43.769Z,4.80
2019-01-26T01:55:30.983Z,4.80
2019-01-26T01:56:19.463Z,4.80
2019-01-26T01:57:06.107Z,4.80
2019-01-26T01:57:52.626Z,4.80
2019-01-26T01:58:42.343Z,4.80
2019-01-26T01:59:28.398Z,4.80
2019-01-26T02:00:20.263Z,4.80
2019-01-26T02:01:06.094Z,4.80
2019-01-26T02:01:52.500Z,4.80
2019-01-26T02:02:38.394Z,4.80
2019-01-26T02:03:24.296Z,4.80
2019-01-26T02:04:10.242Z,4.80
2019-01-26T02:04:56.349Z,4.80
2019-01-26T02:05:44.410Z,4.80
2019-01-26T02:06:32.103Z,4.80
2019-01-26T02:07:18.446Z,4.80
2019-01-26T02:08:04.330Z,4.80
2019-01-26T02:08:50.282Z,4.80
2019-01-26T02:09:37.942Z,4.80
2019-01-26T02:10:24.704Z,4.80
2019-01-26T02:11:10.874Z,4.80
2019-01-26T02:11:57.456Z,4.90
2019-01-26T02:12:43.695Z,4.80
2019-01-26T02:13:31.309Z,4.80
2019-01-26T02:14:17.947Z,4.90
2019-01-26T02:15:05.131Z,4.80
2019-01-26T02:15:52.459Z,4.80
2019-01-26T02:16:38.779Z,4.90
2019-01-26T02:17:25.957Z,4.80
2019-01-26T02:18:13.512Z,4.80
2019-01-26T02:18:59.932Z,4.80
2019-01-26T02:19:46.062Z,4.80
2019-01-26T02:20:32.554Z,4.80
2019-01-26T02:21:18.796Z,4.80
2019-01-26T02:22:04.902Z,4.90
2019-01-26T02:22:50.883Z,4.90
2019-01-26T02:23:38.059Z,4.90
2019-01-26T02:24:27.484Z,4.90
2019-01-26T02:25:13.957Z,4.90
2019-01-26T02:26:00.580Z,4.90
2019-01-26T02:26:47.036Z,4.90
2019-01-26T02:27:33.523Z,4.90
2019-01-26T02:28:20.126Z,4.90
2019-01-26T02:29:06.236Z,4.90
2019-01-26T02:29:53.284Z,4.90
2019-01-26T02:30:39.791Z,4.90
2019-01-26T02:31:28.276Z,4.90
2019-01-26T02:32:14.404Z,4.90
2019-01-26T02:33:02.045Z,4.90
2019-01-26T02:33:48.978Z,4.90
2019-01-26T02:34:35.151Z,4.90
2019-01-26T02:35:21.431Z,4.90
2019-01-26T02:36:07.862Z,4.90
2019-01-26T02:36:53.986Z,4.90
2019-01-26T02:37:43.344Z,4.90
2019-01-26T02:38:29.525Z,4.90
2019-01-26T02:39:15.523Z,4.90
2019-01-26T02:40:01.586Z,4.90
2019-01-26T02:40:47.878Z,4.90
2019-01-26T02:41:33.715Z,4.90
2019-01-26T02:42:19.487Z,5.00
2019-01-26T02:43:05.651Z,4.90
2019-01-26T02:43:51.673Z,4.90
2019-01-26T02:44:37.609Z,5.00
2019-01-26T02:45:25.041Z,4.90
2019-01-26T02:46:11.438Z,4.90
2019-01-26T02:46:58.372Z,5.00
2019-01-26T02:47:44.503Z,4.90
2019-01-26T02:48:30.818Z,4.90
2019-01-26T02:49:16.626Z,5.00
2019-01-26T02:50:04.167Z,5.00
2019-01-26T02:50:50.401Z,5.00
2019-01-26T02:51:38.301Z,5.00
2019-01-26T02:52:24.893Z,5.00
2019-01-26T02:53:12.328Z,5.00
2019-01-26T02:53:58.718Z,5.00
2019-01-26T02:54:44.727Z,5.00
2019-01-26T02:55:31.281Z,5.00
2019-01-26T02:56:18.719Z,5.00
2019-01-26T02:57:04.967Z,5.00
2019-01-26T02:57:51.109Z,5.00
2019-01-26T02:58:38.201Z,5.00
2019-01-26T02:59:24.495Z,5.00
2019-01-26T03:00:21.628Z,5.00
2019-01-26T03:01:07.474Z,5.00
2019-01-26T03:01:53.509Z,5.00
2019-01-26T03:02:39.822Z,5.00
2019-01-26T03:03:27.773Z,5.00
2019-01-26T03:04:13.666Z,5.00
2019-01-26T03:04:59.612Z,5.00
2019-01-26T03:05:48.827Z,5.00
2019-01-26T03:06:34.971Z,5.00
2019-01-26T03:07:20.882Z,5.00
2019-01-26T03:08:07.303Z,5.00
2019-01-26T03:08:53.377Z,5.00
2019-01-26T03:09:39.862Z,5.00
2019-01-26T03:10:27.114Z,5.00
2019-01-26T03:11:14.592Z,5.00
2019-01-26T03:12:00.938Z,5.00
2019-01-26T03:12:47.011Z,5.00
2019-01-26T03:13:32.924Z,5.00
2019-01-26T03:14:18.876Z,5.00
2019-01-26T03:15:07.415Z,5.00
2019-01-26T03:15:53.430Z,5.00
2019-01-26T03:16:41.016Z,5.00
2019-01-26T03:17:27.421Z,5.00
2019-01-26T03:18:13.683Z,5.00
2019-01-26T03:18:59.630Z,5.00
2019-01-26T03:19:45.519Z,5.00
2019-01-26T03:20:31.594Z,5.00
2019-01-26T03:21:19.704Z,5.00
2019-01-26T03:22:07.052Z,5.00
2019-01-26T03:22:53.329Z,5.00
2019-01-26T03:23:39.338Z,5.00
2019-01-26T03:24:25.700Z,5.10
2019-01-26T03:25:12.270Z,5.10
2019-01-26T03:25:58.485Z,5.10
2019-01-26T03:26:44.787Z,5.00
2019-01-26T03:27:31.006Z,5.10
2019-01-26T03:28:17.136Z,5.10
2019-01-26T03:29:04.285Z,5.10
2019-01-26T03:29:50.213Z,5.10
2019-01-26T03:30:36.344Z,5.10
2019-01-26T03:31:22.790Z,5.10
2019-01-26T03:32:08.984Z,5.10
2019-01-26T03:32:55.230Z,5.10
2019-01-26T03:33:41.423Z,5.00
2019-01-26T03:34:27.489Z,5.10
2019-01-26T03:35:14.577Z,5.10
2019-01-26T03:36:02.067Z,5.10
2019-01-26T03:36:48.486Z,5.10
2019-01-26T03:37:34.624Z,5.10
2019-01-26T03:38:21.793Z,5.10
2019-01-26T03:39:08.646Z,5.10
2019-01-26T03:39:55.107Z,5.10
2019-01-26T03:40:42.764Z,5.10
2019-01-26T03:41:29.137Z,5.10
2019-01-26T03:42:16.302Z,5.10
2019-01-26T03:43:02.911Z,5.10
2019-01-26T03:43:49.468Z,5.10
2019-01-26T03:44:36.808Z,5.10
2019-01-26T03:45:23.138Z,5.10
2019-01-26T03:46:09.166Z,5.10
2019-01-26T03:46:55.531Z,5.10
2019-01-26T03:47:41.581Z,5.20
2019-01-26T03:48:28.204Z,5.10
2019-01-26T03:49:14.288Z,5.10
2019-01-26T03:50:00.247Z,5.10
2019-01-26T03:50:46.126Z,5.10
2019-01-26T03:51:32.010Z,5.10
2019-01-26T03:52:18.531Z,5.10
2019-01-26T03:53:04.786Z,5.20
2019-01-26T03:53:51.388Z,5.20
2019-01-26T03:54:37.590Z,5.10
2019-01-26T03:55:23.482Z,5.10
2019-01-26T03:56:09.580Z,5.20
2019-01-26T03:56:58.620Z,5.20
2019-01-26T03:57:44.697Z,5.20
2019-01-26T03:58:31.087Z,5.20
2019-01-26T03:59:17.490Z,5.20
2019-01-26T04:00:07.193Z,5.20
2019-01-26T04:00:53.371Z,5.20
2019-01-26T04:01:39.449Z,5.20
2019-01-26T04:02:25.665Z,5.20
2019-01-26T04:03:11.587Z,5.20
2019-01-26T04:03:57.662Z,5.20
2019-01-26T04:04:45.565Z,5.20
2019-01-26T04:05:32.015Z,5.20
2019-01-26T04:06:18.422Z,5.20
2019-01-26T04:07:04.848Z,5.20
2019-01-26T04:07:51.546Z,5.20
2019-01-26T04:08:39.415Z,5.30
2019-01-26T04:09:25.540Z,5.20
2019-01-26T04:10:12.247Z,5.20
2019-01-26T04:10:58.780Z,5.30
2019-01-26T04:11:44.875Z,5.20
2019-01-26T04:12:32.331Z,5.20
2019-01-26T04:13:18.627Z,5.20
2019-01-26T04:14:06.357Z,5.20
2019-01-26T04:14:52.771Z,5.30
2019-01-26T04:15:38.839Z,5.20
2019-01-26T04:16:24.979Z,5.20
2019-01-26T04:17:12.163Z,5.30
2019-01-26T04:17:58.683Z,5.30
2019-01-26T04:18:44.881Z,5.30
2019-01-26T04:19:30.987Z,5.30
2019-01-26T04:20:18.790Z,5.30
2019-01-26T04:21:05.433Z,5.30
2019-01-26T04:21:51.890Z,5.30
2019-01-26T04:22:38.257Z,5.30
2019-01-26T04:23:24.519Z,5.30
2019-01-26T04:24:10.691Z,5.30
2019-01-26T04:24:57.026Z,5.30
2019-01-26T04:25:43.471Z,5.30
2019-01-26T04:26:29.883Z,5.30
2019-01-26T04:27:16.111Z,5.30
2019-01-26T04:28:02.031Z,5.30
2019-01-26T04:28:48.451Z,5.30
2019-01-26T04:29:34.666Z,5.30
2019-01-26T04:30:21.452Z,5.30
2019-01-26T04:31:07.503Z,5.40
2019-01-26T04:31:57.059Z,5.30
2019-01-26T04:32:44.033Z,5.40
2019-01-26T04:33:31.403Z,5.40
2019-01-26T04:34:17.753Z,5.40
2019-01-26T04:35:04.446Z,5.40
2019-01-26T04:35:50.571Z,5.40
2019-01-26T04:36:36.882Z,5.40
2019-01-26T04:37:22.546Z,5.40
2019-01-26T04:38:08.966Z,5.40
2019-01-26T04:38:54.827Z,5.40
2019-01-26T04:39:40.764Z,5.40
2019-01-26T04:40:26.693Z,5.40
2019-01-26T04:41:12.568Z,5.40
2019-01-26T04:41:58.478Z,5.40
2019-01-26T04:42:47.336Z,5.40
2019-01-26T04:43:33.478Z,5.40
2019-01-26T04:44:20.443Z,5.40
2019-01-26T04:45:09.740Z,5.40
2019-01-26T04:45:55.857Z,5.40
2019-01-26T04:46:43.597Z,5.40
2019-01-26T04:47:31.009Z,5.50
2019-01-26T04:48:17.470Z,5.50
2019-01-26T04:49:04.003Z,5.50
2019-01-26T04:49:50.191Z,5.40
2019-01-26T04:50:36.703Z,5.50
2019-01-26T04:51:23.232Z,5.50
2019-01-26T04:52:09.900Z,5.50
2019-01-26T04:52:55.934Z,5.50
2019-01-26T04:53:41.894Z,5.50
2019-01-26T04:54:30.157Z,5.50
2019-01-26T04:55:17.688Z,5.50
2019-01-26T04:56:05.479Z,5.50
2019-01-26T04:56:51.411Z,5.60
2019-01-26T04:57:39.039Z,5.50
2019-01-26T04:58:25.422Z,5.50
2019-01-26T04:59:11.771Z,5.50
2019-01-26T04:59:57.657Z,5.50
2019-01-26T05:00:43.656Z,5.60
2019-01-26T05:01:30.173Z,5.60
2019-01-26T05:02:19.455Z,5.60
2019-01-26T05:03:05.917Z,5.60
2019-01-26T05:03:51.858Z,5.60
2019-01-26T05:04:37.769Z,5.60
2019-01-26T05:05:26.856Z,5.60
2019-01-26T05:06:13.344Z,5.60
2019-01-26T05:06:59.642Z,5.60
2019-01-26T05:07:45.858Z,5.60
2019-01-26T05:08:31.818Z,5.60
2019-01-26T05:09:20.990Z,5.60
2019-01-26T05:10:08.616Z,5.60
2019-01-26T05:10:54.791Z,5.60
2019-01-26T05:11:42.451Z,5.70
2019-01-26T05:12:31.635Z,5.70
2019-01-26T05:13:17.499Z,5.70
2019-01-26T05:14:03.744Z,5.70
2019-01-26T05:14:51.017Z,5.70
2019-01-26T05:15:40.375Z,5.70
2019-01-26T05:16:26.271Z,5.70
2019-01-26T05:17:12.157Z,5.70
2019-01-26T05:17:58.133Z,5.70
2019-01-26T05:18:44.087Z,5.70
2019-01-26T05:19:30.580Z,5.80
2019-01-26T05:20:22.451Z,5.70
2019-01-26T05:21:08.608Z,5.70
2019-01-26T05:21:55.004Z,5.70
2019-01-26T05:22:40.869Z,5.80
2019-01-26T05:23:27.297Z,5.70
2019-01-26T05:24:13.232Z,5.80
2019-01-26T05:25:00.743Z,5.80
2019-01-26T05:25:46.915Z,5.80
2019-01-26T05:26:32.941Z,5.80
2019-01-26T05:27:18.838Z,5.80
2019-01-26T05:28:05.318Z,5.80
2019-01-26T05:28:54.779Z,5.80
2019-01-26T05:29:40.957Z,5.80
2019-01-26T05:30:29.353Z,5.80
2019-01-26T05:31:18.026Z,5.80
2019-01-26T05:32:04.315Z,5.80
2019-01-26T05:32:50.448Z,5.90
2019-01-26T05:33:36.323Z,5.80
2019-01-26T05:34:23.966Z,5.80
2019-01-26T05:35:10.048Z,5.80
2019-01-26T05:35:57.960Z,5.80
2019-01-26T05:36:44.266Z,5.90
2019-01-26T05:37:30.456Z,5.90
2019-01-26T05:38:16.393Z,5.90
2019-01-26T05:39:04.866Z,5.90
2019-01-26T05:39:52.275Z,5.90
2019-01-26T05:40:39.551Z,5.90
2019-01-26T05:41:26.964Z,5.90
2019-01-26T05:42:13.243Z,5.90
2019-01-26T05:42:59.103Z,5.90
2019-01-26T05:43:45.190Z,5.90
2019-01-26T05:44:33.355Z,5.90
2019-01-26T05:45:21.005Z,5.90
2019-01-26T05:46:06.733Z,5.90
2019-01-26T05:46:52.687Z,5.90
2019-01-26T05:47:38.616Z,5.90
2019-01-26T05:48:24.535Z,5.90
2019-01-26T05:49:12.982Z,5.90
2019-01-26T05:49:59.035Z,5.90
2019-01-26T05:50:45.522Z,5.90
2019-01-26T05:51:32.651Z,5.90
2019-01-26T05:52:18.958Z,5.90
2019-01-26T05:53:04.983Z,5.90
2019-01-26T05:53:51.286Z,5.90
2019-01-26T05:54:37.336Z,6.00
2019-01-26T05:55:23.290Z,6.00
2019-01-26T05:56:09.339Z,6.00
2019-01-26T05:56:56.634Z,6.00
2019-01-26T05:57:43.185Z,6.00
2019-01-26T05:58:29.628Z,6.00
2019-01-26T05:59:16.130Z,5.90
2019-01-26T06:00:02.255Z,6.00
2019-01-26T06:00:48.778Z,6.00
2019-01-26T06:01:35.339Z,6.00
2019-01-26T06:02:21.397Z,6.00
2019-01-26T06:03:08.785Z,6.00
2019-01-26T06:03:56.827Z,6.00
2019-01-26T06:04:43.431Z,6.00
2019-01-26T06:05:29.942Z,6.00
2019-01-26T06:06:15.894Z,6.00
2019-01-26T06:07:02.014Z,6.00
2019-01-26T06:07:52.950Z,6.00
2019-01-26T06:08:39.236Z,6.00
2019-01-26T06:09:25.396Z,6.00
2019-01-26T06:10:12.004Z,6.00
2019-01-26T06:10:58.850Z,6.00
2019-01-26T06:11:45.608Z,6.00
2019-01-26T06:12:33.182Z,6.00
2019-01-26T06:13:22.716Z,6.00
2019-01-26T06:14:09.210Z,6.00
2019-01-26T06:14:55.227Z,6.00
2019-01-26T06:15:41.296Z,6.00
2019-01-26T06:16:29.976Z,6.00
2019-01-26T06:17:16.615Z,6.00
2019-01-26T06:18:02.983Z,6.00
2019-01-26T06:18:50.284Z,6.10
2019-01-26T06:19:37.954Z,6.10
2019-01-26T06:20:24.210Z,6.00
2019-01-26T06:21:10.223Z,6.00
2019-01-26T06:21:57.394Z,6.10
2019-01-26T06:22:45.063Z,6.10
2019-01-26T06:23:31.363Z,6.10
2019-01-26T06:24:17.318Z,6.10
2019-01-26T06:25:04.607Z,6.10
2019-01-26T06:25:56.529Z,6.10
2019-01-26T06:26:44.827Z,6.10
2019-01-26T06:27:34.560Z,6.10
2019-01-26T06:28:20.747Z,6.10
2019-01-26T06:29:07.222Z,6.10
2019-01-26T06:29:53.623Z,6.10
2019-01-26T06:30:41.563Z,6.10
2019-01-26T06:31:29.746Z,6.10
2019-01-26T06:32:16.803Z,6.10
2019-01-26T06:33:03.159Z,6.10
2019-01-26T06:33:49.719Z,6.10
2019-01-26T06:34:36.056Z,6.10
2019-01-26T06:35:22.746Z,6.10
2019-01-26T06:36:10.872Z,6.10
2019-01-26T06:36:57.119Z,6.10
2019-01-26T06:37:43.125Z,6.10
2019-01-26T06:38:32.507Z,6.10
2019-01-26T06:39:19.559Z,6.10
2019-01-26T06:40:07.158Z,6.10
2019-01-26T06:40:53.651Z,6.10
2019-01-26T06:41:41.143Z,6.10
2019-01-26T06:42:32.391Z,6.10
2019-01-26T06:43:18.618Z,6.10
2019-01-26T06:44:05.050Z,6.10
2019-01-26T06:44:51.192Z,6.10
2019-01-26T06:45:37.602Z,6.10
2019-01-26T06:46:24.156Z,6.10
2019-01-26T06:47:10.729Z,6.20
2019-01-26T06:48:02.298Z,6.10
2019-01-26T06:48:49.520Z,6.20
2019-01-26T06:49:35.957Z,6.20
2019-01-26T06:50:25.674Z,6.20
2019-01-26T06:51:13.087Z,6.20
2019-01-26T06:52:01.852Z,6.20
2019-01-26T06:52:52.747Z,6.10
2019-01-26T06:53:40.915Z,6.10
2019-01-26T06:54:27.227Z,6.20
2019-01-26T06:55:15.836Z,6.20
2019-01-26T06:56:06.204Z,6.20
2019-01-26T06:56:52.484Z,6.20
2019-01-26T06:57:38.942Z,6.20
2019-01-26T06:58:27.489Z,6.20
2019-01-26T06:59:16.144Z,6.20
2019-01-26T07:00:05.005Z,6.20
2019-01-26T07:00:53.363Z,6.20
2019-01-26T07:01:45.045Z,6.20
2019-01-26T07:02:32.049Z,6.20
2019-01-26T07:03:18.431Z,6.30
2019-01-26T07:04:05.922Z,6.30
2019-01-26T07:05:14.818Z,6.30
2019-01-26T07:06:27.242Z,6.20
2019-01-26T07:07:19.715Z,6.20
2019-01-26T07:08:05.953Z,6.20
2019-01-26T07:08:52.299Z,6.20
2019-01-26T07:09:38.959Z,6.20
2019-01-26T07:10:31.174Z,6.20
2019-01-26T07:11:17.380Z,6.30
2019-01-26T07:12:03.811Z,6.30
2019-01-26T07:12:49.851Z,6.30
2019-01-26T07:13:38.046Z,6.30
2019-01-26T07:14:24.363Z,6.30
2019-01-26T07:15:11.559Z,6.30
2019-01-26T07:16:01.447Z,6.20
2019-01-26T07:16:49.862Z,6.30
2019-01-26T07:17:36.764Z,6.30
2019-01-26T07:18:23.805Z,6.30
2019-01-26T07:19:09.828Z,6.30
2019-01-26T07:19:56.963Z,6.30
2019-01-26T07:20:43.508Z,6.30
2019-01-26T07:21:29.375Z,6.30
2019-01-26T07:22:16.814Z,6.30
2019-01-26T07:23:03.335Z,6.30
2019-01-26T07:23:49.704Z,6.30
2019-01-26T07:24:35.984Z,6.30
2019-01-26T07:25:22.651Z,6.30
2019-01-26T07:26:08.774Z,6.30
2019-01-26T07:26:55.290Z,6.30
2019-01-26T07:27:41.483Z,6.30
2019-01-26T07:28:27.751Z,6.30
2019-01-26T07:29:13.748Z,6.30
2019-01-26T07:30:00.598Z,6.30
2019-01-26T07:30:46.913Z,6.30
2019-01-26T07:31:32.871Z,6.30
2019-01-26T07:32:19.288Z,6.30
2019-01-26T07:33:05.287Z,6.30
2019-01-26T07:33:51.094Z,6.30
2019-01-26T07:34:37.096Z,6.30
2019-01-26T07:35:24.319Z,6.30
2019-01-26T07:36:10.588Z,6.30
2019-01-26T07:36:56.656Z,6.30
2019-01-26T07:37:44.486Z,6.30
2019-01-26T07:38:32.312Z,6.30
2019-01-26T07:39:18.407Z,6.30
2019-01-26T07:40:05.788Z,6.30
2019-01-26T07:40:51.728Z,6.30
2019-01-26T07:41:37.733Z,6.30
2019-01-26T07:42:23.802Z,6.30
2019-01-26T07:43:10.297Z,6.30
2019-01-26T07:43:56.907Z,6.30
2019-01-26T07:44:43.077Z,6.30
2019-01-26T07:45:30.794Z,6.30
2019-01-26T07:46:17.413Z,6.30
2019-01-26T07:47:03.795Z,6.30
2019-01-26T07:47:49.759Z,6.30
2019-01-26T07:48:37.408Z,6.30
2019-01-26T07:49:26.779Z,6.30
2019-01-26T07:50:15.613Z,6.30
2019-01-26T07:51:02.016Z,6.30
2019-01-26T07:51:47.971Z,6.30
2019-01-26T07:52:33.966Z,6.30
2019-01-26T07:53:20.252Z,6.30
2019-01-26T07:54:06.560Z,6.30
2019-01-26T07:54:52.746Z,6.30
2019-01-26T07:55:42.152Z,6.30
2019-01-26T07:56:28.143Z,6.30
2019-01-26T07:57:14.213Z,6.30
2019-01-26T07:58:00.858Z,6.30
2019-01-26T07:58:47.610Z,6.20
2019-01-26T07:59:34.026Z,6.20
2019-01-26T08:00:22.501Z,6.20
2019-01-26T08:01:09.831Z,6.20
2019-01-26T08:01:56.882Z,6.20
2019-01-26T08:02:43.264Z,6.20
2019-01-26T08:03:29.298Z,6.20
2019-01-26T08:04:17.019Z,6.20
2019-01-26T08:05:04.516Z,6.20
2019-01-26T08:05:50.552Z,6.20
2019-01-26T08:06:37.766Z,6.20
2019-01-26T08:07:24.217Z,6.20
2019-01-26T08:08:10.490Z,6.20
2019-01-26T08:08:56.835Z,6.20
2019-01-26T08:09:42.946Z,6.20
2019-01-26T08:10:29.694Z,6.20
2019-01-26T08:11:19.161Z,6.20
2019-01-26T08:12:05.504Z,6.20
2019-01-26T08:12:52.584Z,6.20
2019-01-26T08:13:39.766Z,6.10
2019-01-26T08:14:26.114Z,6.10
2019-01-26T08:15:14.830Z,6.20
2019-01-26T08:16:00.803Z,6.10
2019-01-26T08:16:47.239Z,6.10
2019-01-26T08:17:33.835Z,6.10
2019-01-26T08:18:24.001Z,6.10
2019-01-26T08:19:08.043Z,6.10
2019-01-26T08:19:54.148Z,6.10
2019-01-26T08:20:40.411Z,6.10
2019-01-26T08:21:28.831Z,6.10
2019-01-26T08:22:36.071Z,6.10
2019-01-26T08:23:22.084Z,6.10
2019-01-26T08:24:08.446Z,6.10
2019-01-26T08:24:55.614Z,6.10
2019-01-26T08:25:41.849Z,6.10
2019-01-26T08:26:28.373Z,6.00
2019-01-26T08:27:14.743Z,6.10
2019-01-26T08:28:25.703Z,6.10
2019-01-26T08:29:12.014Z,6.00
2019-01-26T08:29:59.222Z,6.00
2019-01-26T08:30:45.691Z,6.10
2019-01-26T08:31:32.242Z,6.10
2019-01-26T08:32:23.505Z,6.10
2019-01-26T08:33:16.230Z,6.10
2019-01-26T08:34:08.113Z,6.10
2019-01-26T08:34:54.949Z,6.10
2019-01-26T08:35:41.313Z,6.00
2019-01-26T08:36:27.691Z,6.10
2019-01-26T08:37:14.056Z,6.10
2019-01-26T08:38:00.859Z,6.00
2019-01-26T08:38:46.982Z,6.10
2019-01-26T08:39:33.858Z,6.10
2019-01-26T08:40:20.541Z,6.10
2019-01-26T08:41:06.914Z,6.00
2019-01-26T08:41:53.160Z,6.10
2019-01-26T08:42:39.267Z,6.00
2019-01-26T08:43:25.447Z,6.10
2019-01-26T08:44:11.975Z,6.10
2019-01-26T08:44:58.221Z,6.00
2019-01-26T08:45:44.912Z,6.00
2019-01-26T08:46:31.019Z,6.00
2019-01-26T08:47:16.978Z,6.10
2019-01-26T08:48:05.043Z,6.10
2019-01-26T08:48:51.701Z,6.00
2019-01-26T08:49:38.095Z,6.00
2019-01-26T08:50:25.149Z,6.00
2019-01-26T08:51:11.833Z,6.00
2019-01-26T08:51:59.632Z,6.00
2019-01-26T08:52:46.176Z,6.00
2019-01-26T08:53:32.849Z,6.00
2019-01-26T08:54:19.098Z,6.00
2019-01-26T08:55:06.639Z,6.00
2019-01-26T08:55:52.820Z,6.00
2019-01-26T08:56:39.042Z,6.00
2019-01-26T08:57:26.341Z,6.10
2019-01-26T08:58:12.934Z,6.10
2019-01-26T08:58:59.034Z,6.00
2019-01-26T08:59:45.737Z,6.10
2019-01-26T09:00:33.220Z,6.00
2019-01-26T09:01:20.712Z,6.00
2019-01-26T09:02:39.046Z,6.10
2019-01-26T09:03:41.185Z,6.00
2019-01-26T09:04:31.127Z,6.00
2019-01-26T09:05:17.228Z,6.00
2019-01-26T09:06:17.673Z,6.00
2019-01-26T09:07:05.913Z,6.00
2019-01-26T09:07:51.870Z,6.00
2019-01-26T09:08:38.414Z,6.00
2019-01-26T09:09:24.975Z,6.00
2019-01-26T09:10:11.111Z,6.00
2019-01-26T09:10:57.286Z,6.00
2019-01-26T09:11:44.111Z,6.00
2019-01-26T09:12:30.630Z,6.00
2019-01-26T09:13:17.309Z,6.00
2019-01-26T09:14:03.877Z,6.00
2019-01-26T09:14:50.127Z,6.00
2019-01-26T09:15:36.493Z,6.00
2019-01-26T09:16:24.563Z,6.10
2019-01-26T09:17:10.974Z,6.10
2019-01-26T09:17:59.361Z,6.10
2019-01-26T09:18:45.870Z,6.10
2019-01-26T09:19:32.219Z,6.10
2019-01-26T09:20:18.401Z,6.10
2019-01-26T09:21:06.241Z,6.10
2019-01-26T09:21:53.907Z,6.10
2019-01-26T09:22:40.313Z,6.10
2019-01-26T09:23:27.806Z,6.10
2019-01-26T09:24:15.546Z,6.10
2019-01-26T09:25:01.663Z,6.10
2019-01-26T09:25:48.687Z,6.10
2019-01-26T09:26:35.646Z,6.10
2019-01-26T09:27:22.516Z,6.10
2019-01-26T09:28:12.006Z,6.10
2019-01-26T09:28:58.290Z,6.10
2019-01-26T09:29:45.127Z,6.10
2019-01-26T09:30:31.390Z,6.10
2019-01-26T09:31:17.680Z,6.10
2019-01-26T09:32:04.084Z,6.10
2019-01-26T09:32:50.394Z,6.10
2019-01-26T09:33:38.577Z,6.10
2019-01-26T09:34:24.988Z,6.10
2019-01-26T09:35:11.838Z,6.10
2019-01-26T09:35:58.487Z,6.10
2019-01-26T09:36:44.900Z,6.20
2019-01-26T09:37:31.487Z,6.20
2019-01-26T09:38:18.391Z,6.10
2019-01-26T09:39:08.603Z,6.20
2019-01-26T09:39:54.885Z,6.20
2019-01-26T09:40:41.389Z,6.20
2019-01-26T09:41:27.879Z,6.20
2019-01-26T09:42:14.163Z,6.20
2019-01-26T09:43:00.433Z,6.20
2019-01-26T09:43:47.143Z,6.20
2019-01-26T09:44:33.636Z,6.20
2019-01-26T09:45:20.452Z,6.20
2019-01-26T09:46:06.914Z,6.20
2019-01-26T09:46:53.627Z,6.20
2019-01-26T09:47:40.675Z,6.20
2019-01-26T09:48:28.640Z,6.30
2019-01-26T09:49:17.304Z,6.30
2019-01-26T09:50:04.850Z,6.30
2019-01-26T09:50:51.423Z,6.20
2019-01-26T09:51:38.094Z,6.30
2019-01-26T09:52:24.253Z,6.20
2019-01-26T09:53:10.904Z,6.30
2019-01-26T09:53:57.714Z,6.30
2019-01-26T09:54:43.962Z,6.30
2019-01-26T09:55:30.588Z,6.30
2019-01-26T09:56:16.881Z,6.30
2019-01-26T09:57:03.395Z,6.30
2019-01-26T09:57:49.874Z,6.30
2019-01-26T09:58:36.183Z,6.30
2019-01-26T09:59:22.452Z,6.30
2019-01-26T10:00:12.847Z,6.30
2019-01-26T10:01:00.141Z,6.30
2019-01-26T10:01:46.576Z,6.30
2019-01-26T10:02:33.035Z,6.30
2019-01-26T10:03:19.452Z,6.30
2019-01-26T10:04:05.883Z,6.30
2019-01-26T10:04:52.059Z,6.30
2019-01-26T10:05:38.950Z,6.40
2019-01-26T10:06:25.442Z,6.40
2019-01-26T10:07:11.899Z,6.30
2019-01-26T10:07:58.515Z,6.40
2019-01-26T10:08:45.089Z,6.40
2019-01-26T10:09:31.544Z,6.40
2019-01-26T10:10:18.215Z,6.40
2019-01-26T10:11:04.803Z,6.40
2019-01-26T10:11:50.908Z,6.40
2019-01-26T10:12:36.783Z,6.40
2019-01-26T10:13:23.011Z,6.40
2019-01-26T10:14:09.539Z,6.40
2019-01-26T10:14:55.733Z,6.40
2019-01-26T10:15:41.867Z,6.40
2019-01-26T10:16:28.296Z,6.40
2019-01-26T10:17:16.311Z,6.50
2019-01-26T10:18:03.003Z,6.50
2019-01-26T10:18:53.578Z,6.50
2019-01-26T10:19:37.448Z,6.50
2019-01-26T10:20:25.700Z,6.50
2019-01-26T10:21:12.074Z,6.50
2019-01-26T10:21:59.588Z,6.50
2019-01-26T10:22:46.667Z,6.50
2019-01-26T10:23:32.724Z,6.50
2019-01-26T10:24:19.463Z,6.50
2019-01-26T10:25:08.094Z,6.50
2019-01-26T10:25:54.509Z,6.50